sensor_id;sensor_type;location;lat;lon;timestamp;pressure;altitude;pressure_sealevel;temperature;humidity
74427;BME280;62859;53.906;27.430;2024-01-15T00:02:30;982.6;;;2.7;69.7
74427;BME280;62859;53.906;27.430;2024-01-15T00:07:30;982.5;;;2.7;69.2
74427;BME280;62859;53.906;27.430;2024-01-15T00:23:06;982.5;;;2.7;68.7
74427;BME280;62859;53.906;27.430;2024-01-15T00:28:20;982.5;;;2.7;68.4
74427;BME280;62859;53.906;27.430;2024-01-15T00:33:18;982.5;;;2.7;68.8
74427;BME280;62859;53.906;27.430;2024-01-15T00:38:10;982.5;;;2.7;69.4
74427;BME280;62859;53.906;27.430;2024-01-15T00:43:20;982.5;;;2.7;69
74427;BME280;62859;53.906;27.430;2024-01-15T00:48:20;982.5;;;2.6;68.8
74427;BME280;62859;53.906;27.430;2024-01-15T00:53:00;982.5;;;2.6;69
74427;BME280;62859;53.906;27.430;2024-01-15T00:58:20;982.5;;;2.6;68.7
74427;BME280;62859;53.906;27.430;2024-01-15T01:03:18;982.5;;;2.6;68.5
74427;BME280;62859;53.906;27.430;2024-01-15T01:08:06;982.5;;;2.6;68.5
74427;BME280;62859;53.906;27.430;2024-01-15T01:13:20;982.5;;;2.6;68.9
74427;BME280;62859;53.906;27.430;2024-01-15T01:17:30;982.4;;;2.6;69.2
74427;BME280;62859;53.906;27.430;2024-01-15T01:22:30;982.4;;;2.7;69.9
74427;BME280;62859;53.906;27.430;2024-01-15T01:27:30;982.4;;;2.6;69.6
74427;BME280;62859;53.906;27.430;2024-01-15T01:32:40;982.4;;;2.6;69.3
74427;BME280;62859;53.906;27.430;2024-01-15T01:37:38;982.4;;;2.6;68.6
74427;BME280;62859;53.906;27.430;2024-01-15T01:42:30;982.4;;;2.5;68.5
74427;BME280;62859;53.906;27.430;2024-01-15T01:47:56;982.4;;;2.5;68.2
74427;BME280;62859;53.906;27.430;2024-01-15T01:53:08;982.3;;;2.4;68.2
74427;BME280;62859;53.906;27.430;2024-01-15T01:58:06;982.3;;;2.4;68.4
74427;BME280;62859;53.906;27.430;2024-01-15T02:03:18;982.2;;;2.4;68.3
74427;BME280;62859;53.906;27.430;2024-01-15T02:08:20;982.3;;;2.4;69
74427;BME280;62859;53.906;27.430;2024-01-15T02:13:08;982.3;;;2.4;69.2
74427;BME280;62859;53.906;27.430;2024-01-15T02:18:20;982.2;;;2.4;68.7
74427;BME280;62859;53.906;27.430;2024-01-15T02:23:18;982.2;;;2.5;68.8
74427;BME280;62859;53.906;27.430;2024-01-15T02:28:01;982.2;;;2.5;68.2
74427;BME280;62859;53.906;27.430;2024-01-15T02:33:18;982.1;;;2.5;67.9
74427;BME280;62859;53.906;27.430;2024-01-15T02:38:20;982.1;;;2.5;67.7
74427;BME280;62859;53.906;27.430;2024-01-15T02:43:04;982.1;;;2.5;67.8
74427;BME280;62859;53.906;27.430;2024-01-15T02:48:20;982;;;2.4;68.2
74427;BME280;62859;53.906;27.430;2024-01-15T02:52:30;982;;;2.4;68.6
74427;BME280;62859;53.906;27.430;2024-01-15T02:58:18;981.9;;;2.4;68.9
74427;BME280;62859;53.906;27.430;2024-01-15T03:02:39;981.9;;;2.4;68.8
74427;BME280;62859;53.906;27.430;2024-01-15T03:07:40;982;;;2.4;68.9
74427;BME280;62859;53.906;27.430;2024-01-15T03:12:52;981.9;;;2.4;69
74427;BME280;62859;53.906;27.430;2024-01-15T03:17:30;981.9;;;2.2;69
74427;BME280;62859;53.906;27.430;2024-01-15T03:22:30;981.8;;;2.2;69.2
74427;BME280;62859;53.906;27.430;2024-01-15T03:28:20;981.8;;;2.3;68.5
74427;BME280;62859;53.906;27.430;2024-01-15T03:33:06;981.8;;;2.3;67.8
74427;BME280;62859;53.906;27.430;2024-01-15T03:37:30;981.7;;;2.3;67.8
74427;BME280;62859;53.906;27.430;2024-01-15T03:43:18;981.7;;;2.4;68.2
74427;BME280;62859;53.906;27.430;2024-01-15T03:47:46;981.8;;;2.4;68
74427;BME280;62859;53.906;27.430;2024-01-15T03:52:58;981.7;;;2.3;67.9
74427;BME280;62859;53.906;27.430;2024-01-15T03:58:00;981.7;;;2.3;68
74427;BME280;62859;53.906;27.430;2024-01-15T04:02:58;981.7;;;2.2;67.9
74427;BME280;62859;53.906;27.430;2024-01-15T04:07:30;981.7;;;2.2;67.5
74427;BME280;62859;53.906;27.430;2024-01-15T04:13:11;981.6;;;2.2;67.2
74427;BME280;62859;53.906;27.430;2024-01-15T04:17:46;981.6;;;2.2;67.5
74427;BME280;62859;53.906;27.430;2024-01-15T04:22:32;981.6;;;2.2;67.7
74427;BME280;62859;53.906;27.430;2024-01-15T04:27:30;981.6;;;2.2;68.1
74427;BME280;62859;53.906;27.430;2024-01-15T04:33:21;981.6;;;2.3;68.1
74427;BME280;62859;53.906;27.430;2024-01-15T04:38:00;981.5;;;2.2;67.7
74427;BME280;62859;53.906;27.430;2024-01-15T04:42:31;981.4;;;2.2;68
74427;BME280;62859;53.906;27.430;2024-01-15T04:47:38;981.4;;;2.2;67.9
74427;BME280;62859;53.906;27.430;2024-01-15T04:52:39;981.3;;;2.1;68.2
74427;BME280;62859;53.906;27.430;2024-01-15T04:57:38;981.3;;;2;69
74427;BME280;62859;53.906;27.430;2024-01-15T05:02:46;981.3;;;2;69.4
74427;BME280;62859;53.906;27.430;2024-01-15T05:08:07;981.3;;;2;69.7
74427;BME280;62859;53.906;27.430;2024-01-15T05:12:56;981.3;;;1.9;70
74427;BME280;62859;53.906;27.430;2024-01-15T05:18:11;981.3;;;1.9;70.5
74427;BME280;62859;53.906;27.430;2024-01-15T05:22:56;981.2;;;1.7;71.2
74427;BME280;62859;53.906;27.430;2024-01-15T05:28:21;981.2;;;1.7;71.2
74427;BME280;62859;53.906;27.430;2024-01-15T05:32:49;981.2;;;1.8;71.2
74427;BME280;62859;53.906;27.430;2024-01-15T05:38:08;981.2;;;1.8;71
74427;BME280;62859;53.906;27.430;2024-01-15T05:42:39;981.1;;;1.9;70.5
74427;BME280;62859;53.906;27.430;2024-01-15T05:48:08;981.2;;;1.9;70.5
74427;BME280;62859;53.906;27.430;2024-01-15T05:52:51;981.2;;;1.9;70.4
74427;BME280;62859;53.906;27.430;2024-01-15T05:58:21;981.2;;;1.9;70.3
74427;BME280;62859;53.906;27.430;2024-01-15T06:02:47;981.1;;;2;70.1
74427;BME280;62859;53.906;27.430;2024-01-15T06:08:05;981.1;;;2;70
74427;BME280;62859;53.906;27.430;2024-01-15T06:13:21;981.1;;;2;70.1
74427;BME280;62859;53.906;27.430;2024-01-15T06:17:48;981.1;;;2.1;69.6
74427;BME280;62859;53.906;27.430;2024-01-15T06:22:31;981;;;2.2;69.1
74427;BME280;62859;53.906;27.430;2024-01-15T06:27:55;981.1;;;2.2;68.8
74427;BME280;62859;53.906;27.430;2024-01-15T06:32:31;981;;;2.1;69.1
74427;BME280;62859;53.906;27.430;2024-01-15T06:37:39;981.1;;;2;69.7
74427;BME280;62859;53.906;27.430;2024-01-15T06:42:39;981;;;2.1;69.9
74427;BME280;62859;53.906;27.430;2024-01-15T06:47:31;981;;;2.1;69.7
74427;BME280;62859;53.906;27.430;2024-01-15T06:53:19;981;;;2.1;69.9
74427;BME280;62859;53.906;27.430;2024-01-15T06:58:07;981;;;2;69.7
74427;BME280;62859;53.906;27.430;2024-01-15T07:03:19;980.9;;;2;69.8
74427;BME280;62859;53.906;27.430;2024-01-15T07:08:21;980.9;;;2;69.8
74427;BME280;62859;53.906;27.430;2024-01-15T07:12:41;981;;;1.9;69.9
74427;BME280;62859;53.906;27.430;2024-01-15T07:18:21;981;;;1.9;70
74427;BME280;62859;53.906;27.430;2024-01-15T07:23:09;981;;;2;70
74427;BME280;62859;53.906;27.430;2024-01-15T07:27:59;981.1;;;2.1;69.9
74427;BME280;62859;53.906;27.430;2024-01-15T07:32:39;981;;;2;69.8
74427;BME280;62859;53.906;27.430;2024-01-15T07:38:21;981;;;2;69.9
74427;BME280;62859;53.906;27.430;2024-01-15T07:42:34;981;;;2;69.9
74427;BME280;62859;53.906;27.430;2024-01-15T07:48:07;981;;;2;70
74427;BME280;62859;53.906;27.430;2024-01-15T07:52:47;980.9;;;2.1;69.8
74427;BME280;62859;53.906;27.430;2024-01-15T07:58:05;980.9;;;2.1;69.7
74427;BME280;62859;53.906;27.430;2024-01-15T08:02:39;980.8;;;2.1;69.4
74427;BME280;62859;53.906;27.430;2024-01-15T08:07:41;980.8;;;2.2;69.6
74427;BME280;62859;53.906;27.430;2024-01-15T08:12:31;980.7;;;2.2;70
74427;BME280;62859;53.906;27.430;2024-01-15T08:17:31;980.8;;;2.3;69.5
74427;BME280;62859;53.906;27.430;2024-01-15T08:22:47;980.7;;;2.3;69.1
74427;BME280;62859;53.906;27.430;2024-01-15T08:28:19;980.6;;;2.3;68.8
74427;BME280;62859;53.906;27.430;2024-01-15T08:33:05;980.6;;;2.3;68.8
74427;BME280;62859;53.906;27.430;2024-01-15T08:37:55;980.6;;;2.3;68.6
74427;BME280;62859;53.906;27.430;2024-01-15T08:43:19;980.6;;;2.3;68.4
74427;BME280;62859;53.906;27.430;2024-01-15T08:47:57;980.5;;;2.3;68.6
74427;BME280;62859;53.906;27.430;2024-01-15T08:52:53;980.5;;;2.3;69.1
74427;BME280;62859;53.906;27.430;2024-01-15T08:57:39;980.4;;;2.3;69.1
74427;BME280;62859;53.906;27.430;2024-01-15T09:03:01;980.3;;;2.3;69.3
74427;BME280;62859;53.906;27.430;2024-01-15T09:07:49;980.3;;;2.3;69.2
74427;BME280;62859;53.906;27.430;2024-01-15T09:13:09;980.1;;;2.5;69.1
74427;BME280;62859;53.906;27.430;2024-01-15T09:17:47;980.1;;;2.6;68.7
74427;BME280;62859;53.906;27.430;2024-01-15T09:22:51;980.1;;;2.5;68.7
74427;BME280;62859;53.906;27.430;2024-01-15T09:27:31;980.1;;;2.6;68.6
74427;BME280;62859;53.906;27.430;2024-01-15T09:33:21;980.1;;;2.5;68.3
74427;BME280;62859;53.906;27.430;2024-01-15T09:38:19;980.2;;;2.5;68.9
74427;BME280;62859;53.906;27.430;2024-01-15T09:42:51;980.1;;;2.5;68.3
74427;BME280;62859;53.906;27.430;2024-01-15T09:47:31;980;;;2.5;68.4
74427;BME280;62859;53.906;27.430;2024-01-15T09:52:31;979.9;;;2.6;67.9
74427;BME280;62859;53.906;27.430;2024-01-15T09:57:41;979.8;;;2.6;67.5
74427;BME280;62859;53.906;27.430;2024-01-15T10:03:21;979.8;;;2.7;67.4
74427;BME280;62859;53.906;27.430;2024-01-15T10:08:07;979.9;;;2.8;67.1
74427;BME280;62859;53.906;27.430;2024-01-15T10:12:55;979.9;;;2.7;67.1
74427;BME280;62859;53.906;27.430;2024-01-15T10:18:11;980;;;2.7;67.4
74427;BME280;62859;53.906;27.430;2024-01-15T10:22:55;979.8;;;2.7;68.3
74427;BME280;62859;53.906;27.430;2024-01-15T10:28:21;979.8;;;2.7;67.8
74427;BME280;62859;53.906;27.430;2024-01-15T10:32:57;979.8;;;2.7;67.6
74427;BME280;62859;53.906;27.430;2024-01-15T10:37:59;979.7;;;2.8;67.7
74427;BME280;62859;53.906;27.430;2024-01-15T10:42:51;979.7;;;2.7;66.9
74427;BME280;62859;53.906;27.430;2024-01-15T10:48:11;979.6;;;2.6;67.2
74427;BME280;62859;53.906;27.430;2024-01-15T10:53:01;979.6;;;2.7;67.3
74427;BME280;62859;53.906;27.430;2024-01-15T10:58:21;979.6;;;2.7;67.2
74427;BME280;62859;53.906;27.430;2024-01-15T11:02:31;979.5;;;2.7;67.4
74427;BME280;62859;53.906;27.430;2024-01-15T11:08:07;979.4;;;2.8;67.7
74427;BME280;62859;53.906;27.430;2024-01-15T11:13:19;979.3;;;2.9;67.5
74427;BME280;62859;53.906;27.430;2024-01-15T11:17:57;979.3;;;2.9;67
74427;BME280;62859;53.906;27.430;2024-01-15T11:22:47;979.5;;;2.7;67.2
74427;BME280;62859;53.906;27.430;2024-01-15T11:27:39;979.4;;;2.7;67.4
74427;BME280;62859;53.906;27.430;2024-01-15T11:32:39;979.3;;;2.6;67.4
74427;BME280;62859;53.906;27.430;2024-01-15T11:38:10;979.3;;;2.6;67
74427;BME280;62859;53.906;27.430;2024-01-15T11:42:31;979.1;;;2.5;67.1
74427;BME280;62859;53.906;27.430;2024-01-15T11:48:11;979.2;;;2.5;66.9
74427;BME280;62859;53.906;27.430;2024-01-15T11:53:27;979;;;2.5;67.4
74427;BME280;62859;53.906;27.430;2024-01-15T11:58:07;979.1;;;2.5;67.5
74427;BME280;62859;53.906;27.430;2024-01-15T12:03:20;979;;;2.4;67.2
74427;BME280;62859;53.906;27.430;2024-01-15T12:07:49;978.9;;;2.4;67.6
74427;BME280;62859;53.906;27.430;2024-01-15T12:13:09;978.9;;;2.5;67.7
74427;BME280;62859;53.906;27.430;2024-01-15T12:18:17;978.7;;;2.4;67.8
74427;BME280;62859;53.906;27.430;2024-01-15T12:23:19;978.6;;;2.4;68
74427;BME280;62859;53.906;27.430;2024-01-15T12:27:59;978.6;;;2.5;68
74427;BME280;62859;53.906;27.430;2024-01-15T12:32:49;978.5;;;2.4;68.4
74427;BME280;62859;53.906;27.430;2024-01-15T12:38:19;978.5;;;2.5;68.5
74427;BME280;62859;53.906;27.430;2024-01-15T12:42:57;978.5;;;2.5;68.5
74427;BME280;62859;53.906;27.430;2024-01-15T12:48:19;978.5;;;2.5;68.6
74427;BME280;62859;53.906;27.430;2024-01-15T12:52:57;978.5;;;2.4;68.7
74427;BME280;62859;53.906;27.430;2024-01-15T12:58:19;978.7;;;2.4;68.6
74427;BME280;62859;53.906;27.430;2024-01-15T13:02:41;978.5;;;2.4;68.2
74427;BME280;62859;53.906;27.430;2024-01-15T13:07:31;978.7;;;2.4;68.1
74427;BME280;62859;53.906;27.430;2024-01-15T13:12:47;978.5;;;2.3;67.8
74427;BME280;62859;53.906;27.430;2024-01-15T13:17:31;978.5;;;2.3;67.9
74427;BME280;62859;53.906;27.430;2024-01-15T13:22:39;978.5;;;2.3;68
74427;BME280;62859;53.906;27.430;2024-01-15T13:28:19;978.6;;;2.2;67.8
74427;BME280;62859;53.906;27.430;2024-01-15T13:33:05;978.5;;;2.2;67.7
74427;BME280;62859;53.906;27.430;2024-01-15T13:37:31;978.6;;;2.1;67.6
74427;BME280;62859;53.906;27.430;2024-01-15T13:43:17;978.5;;;2.2;67.5
74427;BME280;62859;53.906;27.430;2024-01-15T13:47:31;978.3;;;2.2;67.2
74427;BME280;62859;53.906;27.430;2024-01-15T13:53:01;978.3;;;2.1;67.5
74427;BME280;62859;53.906;27.430;2024-01-15T13:57:51;978.3;;;2.1;67.6
74427;BME280;62859;53.906;27.430;2024-01-15T14:02:59;978.4;;;2.1;67.9
74427;BME280;62859;53.906;27.430;2024-01-15T14:07:51;978.4;;;2.1;68.6
74427;BME280;62859;53.906;27.430;2024-01-15T14:12:35;978.4;;;2;68.7
74427;BME280;62859;53.906;27.430;2024-01-15T14:17:39;978.5;;;2;68.8
74427;BME280;62859;53.906;27.430;2024-01-15T14:23:01;978.4;;;2;68.6
74427;BME280;62859;53.906;27.430;2024-01-15T14:27:47;978.5;;;1.9;68.5
74427;BME280;62859;53.906;27.430;2024-01-15T14:33:17;978.5;;;1.9;68.3
74427;BME280;62859;53.906;27.430;2024-01-15T14:37:47;978.5;;;1.9;68.2
74427;BME280;62859;53.906;27.430;2024-01-15T14:43:17;978.8;;;2;67.9
74427;BME280;62859;53.906;27.430;2024-01-15T14:48:05;978.6;;;1.9;67.9
74427;BME280;62859;53.906;27.430;2024-01-15T14:52:55;978.5;;;1.9;68.5
74427;BME280;62859;53.906;27.430;2024-01-15T14:58:19;978.5;;;1.9;68.8
74427;BME280;62859;53.906;27.430;2024-01-15T15:02:47;978.4;;;1.9;68.5
74427;BME280;62859;53.906;27.430;2024-01-15T15:07:59;978.5;;;1.9;68.7
74427;BME280;62859;53.906;27.430;2024-01-15T15:12:51;978.4;;;1.9;68.6
74427;BME280;62859;53.906;27.430;2024-01-15T15:18:01;978.4;;;1.9;68.9
74427;BME280;62859;53.906;27.430;2024-01-15T15:22:49;978.5;;;1.9;69
74427;BME280;62859;53.906;27.430;2024-01-15T15:27:41;978.5;;;1.9;69
74427;BME280;62859;53.906;27.430;2024-01-15T15:32:31;978.5;;;1.9;69.1
74427;BME280;62859;53.906;27.430;2024-01-15T15:38:01;978.6;;;2;69.4
74427;BME280;62859;53.906;27.430;2024-01-15T15:42:47;978.6;;;2;69.4
74427;BME280;62859;53.906;27.430;2024-01-15T15:48:19;978.6;;;2;68.6
74427;BME280;62859;53.906;27.430;2024-01-15T15:53:19;978.6;;;2.1;68.2
74427;BME280;62859;53.906;27.430;2024-01-15T15:57:31;978.6;;;2.2;68.2
74427;BME280;62859;53.906;27.430;2024-01-15T16:02:31;978.6;;;2.2;68.2
74427;BME280;62859;53.906;27.430;2024-01-15T16:07:31;978.5;;;2.3;67.6
74427;BME280;62859;53.906;27.430;2024-01-15T16:12:31;978.5;;;2.3;66.7
74427;BME280;62859;53.906;27.430;2024-01-15T16:17:31;978.5;;;2.3;66.3
74427;BME280;62859;53.906;27.430;2024-01-15T16:23:19;978.6;;;2.4;66
74427;BME280;62859;53.906;27.430;2024-01-15T16:27:47;978.6;;;2.5;65.9
74427;BME280;62859;53.906;27.430;2024-01-15T16:33:07;978.7;;;2.4;65.8
74427;BME280;62859;53.906;27.430;2024-01-15T16:37:55;978.8;;;2.4;65.8
74427;BME280;62859;53.906;27.430;2024-01-15T16:43:19;978.8;;;2.4;65.7
74427;BME280;62859;53.906;27.430;2024-01-15T16:47:32;978.9;;;2.3;65.7
74427;BME280;62859;53.906;27.430;2024-01-15T16:53:09;978.9;;;2.3;65.6
74427;BME280;62859;53.906;27.430;2024-01-15T16:57:49;978.8;;;2.2;66
74427;BME280;62859;53.906;27.430;2024-01-15T17:03:09;978.9;;;2.3;66.4
74427;BME280;62859;53.906;27.430;2024-01-15T17:07:51;978.8;;;2.2;67.6
74427;BME280;62859;53.906;27.430;2024-01-15T17:13:13;978.8;;;2.2;67.7
74427;BME280;62859;53.906;27.430;2024-01-15T17:17:47;978.7;;;2.1;67
74427;BME280;62859;53.906;27.430;2024-01-15T17:23:05;978.7;;;2.1;66.2
74427;BME280;62859;53.906;27.430;2024-01-15T17:27:59;978.7;;;2.2;65.5
74427;BME280;62859;53.906;27.430;2024-01-15T17:32:39;978.7;;;2.1;65
74427;BME280;62859;53.906;27.430;2024-01-15T17:37:31;978.7;;;2;65
74427;BME280;62859;53.906;27.430;2024-01-15T17:42:39;978.7;;;1.9;65.4
74427;BME280;62859;53.906;27.430;2024-01-15T17:47:41;978.8;;;1.9;66
74427;BME280;62859;53.906;27.430;2024-01-15T17:52:31;978.9;;;1.9;66.3
74427;BME280;62859;53.906;27.430;2024-01-15T17:57:39;978.9;;;1.8;65.8
74427;BME280;62859;53.906;27.430;2024-01-15T18:02:31;978.9;;;1.8;65.9
74427;BME280;62859;53.906;27.430;2024-01-15T18:08:20;978.9;;;1.8;66.6
74427;BME280;62859;53.906;27.430;2024-01-15T18:12:57;978.8;;;1.8;67.2
74427;BME280;62859;53.906;27.430;2024-01-15T18:18:19;978.9;;;1.8;66.8
74427;BME280;62859;53.906;27.430;2024-01-15T18:23:19;978.9;;;1.8;66.3
74427;BME280;62859;53.906;27.430;2024-01-15T18:27:33;978.8;;;1.8;65.8
74427;BME280;62859;53.906;27.430;2024-01-15T18:33:19;978.9;;;1.7;66.4
74427;BME280;62859;53.906;27.430;2024-01-15T18:38:19;979;;;1.7;66.9
74427;BME280;62859;53.906;27.430;2024-01-15T18:42:59;978.9;;;1.6;66.8
74427;BME280;62859;53.906;27.430;2024-01-15T18:47:39;978.9;;;1.6;66.6
74427;BME280;62859;53.906;27.430;2024-01-15T18:53:19;978.9;;;1.5;66.8
74427;BME280;62859;53.906;27.430;2024-01-15T18:57:49;978.8;;;1.4;67.3
74427;BME280;62859;53.906;27.430;2024-01-15T19:03:19;978.9;;;1.2;67.8
74427;BME280;62859;53.906;27.430;2024-01-15T19:07:31;978.9;;;1.2;68.3
74427;BME280;62859;53.906;27.430;2024-01-15T19:13:16;978.8;;;1.2;69.2
74427;BME280;62859;53.906;27.430;2024-01-15T19:17:39;978.8;;;1.1;70.4
74427;BME280;62859;53.906;27.430;2024-01-15T19:22:39;978.7;;;1.1;71.2
74427;BME280;62859;53.906;27.430;2024-01-15T19:27:39;978.9;;;1.1;70.4
74427;BME280;62859;53.906;27.430;2024-01-15T19:32:53;978.9;;;1;70.1
74427;BME280;62859;53.906;27.430;2024-01-15T19:37:31;978.8;;;1;70.1
74427;BME280;62859;53.906;27.430;2024-01-15T19:43:15;978.7;;;1.1;69.9
74427;BME280;62859;53.906;27.430;2024-01-15T19:48:03;978.8;;;1.1;69.5
74427;BME280;62859;53.906;27.430;2024-01-15T19:53:15;978.7;;;1.3;69.1
74427;BME280;62859;53.906;27.430;2024-01-15T19:58:15;978.7;;;1.3;68.5
74427;BME280;62859;53.906;27.430;2024-01-15T20:03:05;978.7;;;1.4;68.5
74427;BME280;62859;53.906;27.430;2024-01-15T20:08:15;978.7;;;1.3;68.3
74427;BME280;62859;53.906;27.430;2024-01-15T20:13:17;978.6;;;1.3;68.4
74427;BME280;62859;53.906;27.430;2024-01-15T20:18:01;978.5;;;1.3;68.4
74427;BME280;62859;53.906;27.430;2024-01-15T20:22:49;978.6;;;1.4;68.1
74427;BME280;62859;53.906;27.430;2024-01-15T20:28:15;978.7;;;1.4;67.7
74427;BME280;62859;53.906;27.430;2024-01-15T20:33:03;978.6;;;1.3;68.5
74427;BME280;62859;53.906;27.430;2024-01-15T20:38:17;978.6;;;1.3;68.7
74427;BME280;62859;53.906;27.430;2024-01-15T20:42:47;978.5;;;1.2;69.5
74427;BME280;62859;53.906;27.430;2024-01-15T20:47:55;978.6;;;1.2;69.8
74427;BME280;62859;53.906;27.430;2024-01-15T20:52:45;978.5;;;1.2;69
74427;BME280;62859;53.906;27.430;2024-01-15T20:57:31;978.4;;;1.3;69.1
74427;BME280;62859;53.906;27.430;2024-01-15T21:02:39;978.4;;;1.3;68.5
74427;BME280;62859;53.906;27.430;2024-01-15T21:07:31;978.3;;;1.4;68.2
74427;BME280;62859;53.906;27.430;2024-01-15T21:12:31;978.6;;;1.3;69.2
74427;BME280;62859;53.906;27.430;2024-01-15T21:18:15;978.5;;;1.1;72.1
74427;BME280;62859;53.906;27.430;2024-01-15T21:22:55;978.6;;;1;72.4
74427;BME280;62859;53.906;27.430;2024-01-15T21:27:53;978.6;;;0.9;72.1
74427;BME280;62859;53.906;27.430;2024-01-15T21:33:15;978.4;;;0.9;72
74427;BME280;62859;53.906;27.430;2024-01-15T21:37:31;978.4;;;0.9;72
74427;BME280;62859;53.906;27.430;2024-01-15T21:42:57;978.4;;;0.9;70.8
74427;BME280;62859;53.906;27.430;2024-01-15T21:47:51;978.4;;;0.9;70.1
74427;BME280;62859;53.906;27.430;2024-01-15T21:52:51;978.4;;;0.9;69.6
74427;BME280;62859;53.906;27.430;2024-01-15T21:57:49;978.4;;;0.9;70.5
74427;BME280;62859;53.906;27.430;2024-01-15T22:03:05;978.4;;;1;68.5
74427;BME280;62859;53.906;27.430;2024-01-15T22:07:39;978.4;;;1;67.9
74427;BME280;62859;53.906;27.430;2024-01-15T22:12:59;978.4;;;1.1;67.2
74427;BME280;62859;53.906;27.430;2024-01-15T22:17:39;978.3;;;1.2;67.2
74427;BME280;62859;53.906;27.430;2024-01-15T22:23:15;978.3;;;1.2;66.8
74427;BME280;62859;53.906;27.430;2024-01-15T22:28:15;978.3;;;1.2;66.6
74427;BME280;62859;53.906;27.430;2024-01-15T22:32:39;978.2;;;1.2;66.6
74427;BME280;62859;53.906;27.430;2024-01-15T22:37:59;978.3;;;1.2;66.7
74427;BME280;62859;53.906;27.430;2024-01-15T22:42:39;978.2;;;1.3;66.6
74427;BME280;62859;53.906;27.430;2024-01-15T22:47:47;978.3;;;1.3;66.5
74427;BME280;62859;53.906;27.430;2024-01-15T22:52:31;978.3;;;1.2;67.2
74427;BME280;62859;53.906;27.430;2024-01-15T22:58:15;978.2;;;1.1;67.9
74427;BME280;62859;53.906;27.430;2024-01-15T23:02:39;978.2;;;1.1;68.4
74427;BME280;62859;53.906;27.430;2024-01-15T23:08:05;978.1;;;1;69.2
74427;BME280;62859;53.906;27.430;2024-01-15T23:12:45;978.2;;;0.9;69.7
74427;BME280;62859;53.906;27.430;2024-01-15T23:18:15;978.1;;;0.9;70.6
74427;BME280;62859;53.906;27.430;2024-01-15T23:22:31;978;;;1;69.4
74427;BME280;62859;53.906;27.430;2024-01-15T23:28:05;978;;;1;68.2
74427;BME280;62859;53.906;27.430;2024-01-15T23:32:31;978;;;1.1;67.6
74427;BME280;62859;53.906;27.430;2024-01-15T23:38:05;978;;;1.1;67.2
74427;BME280;62859;53.906;27.430;2024-01-15T23:43:01;977.9;;;1.1;66.2
74427;BME280;62859;53.906;27.430;2024-01-15T23:48:17;978;;;1.3;66.1
74427;BME280;62859;53.906;27.430;2024-01-15T23:52:47;977.9;;;1.3;65.9
74427;BME280;62859;53.906;27.430;2024-01-15T23:58:03;977.9;;;1.4;65.2
